• Join FlightAware (Why Join?)
  • Login
  • US Flag 
11:23AM EDT


 

Airport Tracker/Info


-or-


 

Live Flight TrackerFlight Track Log ✈ EJA922 ✈ 24-Sep-2013 ✈ KHPN - KBJC

Flight Track Log - Related Links

Times and Time Zones

All times are in EDT time to prevent confusion due to time zone crossing. See the EJA922 flight status page for this flight to view local times or setup timezone preferences in your user account.

Time Position Orientation Groundspeed Altitude Reporting Facility
EDT Latitude Longitude Course Direction KTS MPH feet Rate Location/Type
08:11AM 41.0833 -73.7167 270° West 180 207 1,500  Level New York TRACON
08:12AM 41.0833 -73.8167 270° West 237 273 5,500 3,360 Climbing New York TRACON
08:13AM 41.0500 -73.9000 242° Southwest 262 302 8,600 2,460 Climbing New York TRACON
08:14AM 41.0167 -73.9833 242° Southwest 304 350 10,500 1,560 Climbing New York TRACON
08:15AM 40.9500 -74.1167 237° Southwest 366 421 12,000 1,680 Climbing New York TRACON
08:16AM 40.9167 -74.2500 252° West 383 441 14,100 2,100 Climbing New York TRACON
08:17AM 40.9167 -74.3833 270° West 376 433 16,200 1,380 Climbing New York TRACON
08:19AM 40.9164 -74.5275 270° West 410 472 17,000 720 Climbing New York Center
08:20AM 40.9117 -74.6783 268° West 415 478 17,800 1,080 Climbing New York Center
08:21AM 40.8903 -74.8117 258° West 420 483 19,200 1,680 Climbing New York Center
08:22AM 40.8686 -74.9558 259° West 425 489 21,200 1,800 Climbing New York Center
08:23AM 40.8489 -75.1025 260° West 420 483 22,800 1,500 Climbing New York Center
08:24AM 40.8250 -75.2356 257° West 420 483 24,200 1,440 Climbing New York Center
08:25AM 40.7975 -75.4144 259° West 420 483 25,800 1,380 Climbing New York Center
08:26AM 40.7744 -75.5719 259° West 426 490 27,000 1,140 Climbing New York Center
08:27AM 40.7492 -75.7292 258° West 437 503 28,100 1,020 Climbing New York Center
08:28AM 40.7269 -75.8589 257° West 444 511 29,100 1,080 Climbing New York Center
08:29AM 40.7011 -76.0239 258° West 455 524 30,300 1,200 Climbing New York Center
08:30AM 40.6719 -76.2050 258° West 460 529 31,500 1,320 Climbing New York Center
08:31AM 40.6808 -76.3756 274° West 462 532 33,000 1,620 Climbing New York Center
08:32AM 40.7061 -76.5419 281° West 462 532 34,800 1,980 Climbing New York Center
08:33AM 40.7317 -76.7003 282° West 456 525 36,900 2,160 Climbing New York Center
08:34AM 40.7550 -76.8528 281° West 443 510 39,100 1,500 Climbing New York Center
08:35AM 40.7783 -77.0058 281° West 431 496 40,000 420 Climbing New York Center
08:36AM 40.7992 -77.1614 280° West 431 496 40,000  Level New York Center
08:38AM 40.8575 -77.5517 281° West 456 525 40,000  Level Cleveland Center
08:39AM 40.8783 -77.7158 280° West 453 521 40,000  Level Cleveland Center
08:40AM 40.9006 -77.8739 281° West 441 507 40,000  Level Cleveland Center
08:41AM 40.9225 -78.0333 280° West 443 510 40,000  Level Cleveland Center
08:42AM 40.9414 -78.1903 279° West 435 501 40,000  Level Cleveland Center
08:43AM 40.9614 -78.3611 279° West 444 511 40,000  Level Cleveland Center
08:44AM 40.9819 -78.5236 280° West 450 518 40,000  Level Cleveland Center
08:45AM 41.0086 -78.7258 280° West 465 535 40,000  Level Cleveland Center
08:46AM 41.0267 -78.8889 278° West 456 525 40,000  Level Cleveland Center
08:47AM 41.0419 -79.0503 277° West 448 516 40,000  Level Cleveland Center
08:48AM 41.0600 -79.2156 278° West 453 521 40,000  Level Cleveland Center
08:49AM 41.0797 -79.3806 279° West 456 525 40,000  Level Cleveland Center
08:50AM 41.1022 -79.5792 279° West 457 526 40,000  Level Cleveland Center
08:51AM 41.1197 -79.7469 278° West 457 526 40,000  Level Cleveland Center
08:52AM 41.1378 -79.9125 278° West 456 525 40,000  Level Cleveland Center
08:53AM 41.1564 -80.0758 279° West 460 529 40,000  Level Cleveland Center
08:54AM 41.1731 -80.2433 278° West 462 532 40,000  Level Cleveland Center
08:55AM 41.1925 -80.4258 278° West 462 532 40,000  Level Cleveland Center
08:56AM 41.2092 -80.5958 277° West 462 532 40,000  Level Cleveland Center
08:57AM 41.2261 -80.7669 278° West 463 533 40,000  Level Cleveland Center
08:59AM 41.2461 -80.9656 278° West 463 533 40,000  Level Cleveland Center
09:00AM 41.2633 -81.1381 278° West 467 537 40,000  Level Cleveland Center
09:01AM 41.2797 -81.3100 277° West 467 537 40,000  Level Cleveland Center
09:02AM 41.2975 -81.4928 277° West 469 540 40,000  Level Cleveland Center
09:03AM 41.3133 -81.6658 277° West 472 543 40,000  Level Cleveland Center
09:04AM 41.3286 -81.8408 277° West 477 549 40,000  Level Cleveland Center
09:05AM 41.3436 -82.0150 277° West 475 547 40,000  Level Cleveland Center
09:06AM 41.3594 -82.2008 277° West 472 543 40,000  Level Cleveland Center
09:07AM 41.3700 -82.3769 275° West 474 545 40,000  Level Cleveland Center
09:08AM 41.3806 -82.5550 275° West 476 548 40,000  Level Cleveland Center
09:09AM 41.3922 -82.7628 274° West 481 554 40,000  Level Cleveland Center
09:10AM 41.4025 -82.9419 274° West 481 554 40,000  Level Cleveland Center
09:11AM 41.4119 -83.1219 274° West 482 555 40,000  Level Cleveland Center
09:12AM 41.4208 -83.3050 274° West 483 556 40,000  Level Cleveland Center
09:13AM 41.4283 -83.4842 273° West 484 557 40,000  Level Cleveland Center
09:14AM 41.4381 -83.6633 274° West 483 556 40,000  Level Cleveland Center
09:15AM 41.4458 -83.8428 273° West 485 558 40,000  Level Cleveland Center
09:16AM 41.4544 -84.0225 274° West 486 559 40,000  Level Cleveland Center
09:17AM 41.4633 -84.2403 273° West 490 564 40,000  Level Cleveland Center
09:18AM 41.4703 -84.3739 274° West 489 563 40,000  Level Chicago Center
09:19AM 41.4786 -84.5925 273° West 493 567 40,000  Level Chicago Center
09:20AM 41.4858 -84.7736 273° West 491 565 40,000 120 Level Chicago Center
09:21AM 41.4917 -84.9556 273° West 492 566 40,300 480 Climbing Chicago Center
09:22AM 41.4978 -85.1353 273° West 486 559 41,100 720 Climbing Chicago Center
09:23AM 41.5019 -85.3108 272° West 471 542 41,900 720 Climbing Chicago Center
09:24AM 41.5075 -85.4906 272° West 469 540 42,700 480 Climbing Chicago Center
09:25AM 41.5139 -85.6647 273° West 462 532 43,000 120 Climbing Chicago Center
09:26AM 41.5194 -85.8419 272° West 474 545 43,000  Level Chicago Center
09:27AM 41.5247 -86.0564 272° West 481 554 43,000  Level Chicago Center
09:28AM 41.5278 -86.2358 271° West 483 556 43,000  Level Chicago Center
09:29AM 41.5319 -86.4158 272° West 487 560 43,000  Level Chicago Center
09:30AM 41.5333 -86.5969 271° West 486 559 43,000  Level Chicago Center
09:31AM 41.5364 -86.7964 271° West 493 567 43,000  Level Chicago Center
09:33AM 41.5394 -86.9772 271° West 490 564 43,000  Level Chicago Center
09:34AM 41.5411 -87.1589 271° West 491 565 43,000  Level Chicago Center
09:35AM 41.5425 -87.3372 271° West 486 559 43,000  Level Chicago Center
09:36AM 41.5439 -87.5533 271° West 489 563 43,000  Level Chicago Center
09:37AM 41.5444 -87.7336 270° West 491 565 43,000  Level Chicago Center
09:38AM 41.5456 -87.9108 271° West 488 562 43,000  Level Chicago Center
09:39AM 41.5481 -88.0861 271° West 489 563 43,000  Level Chicago Center
09:40AM 41.5467 -88.2997 270° West 492 566 43,000  Level Chicago Center
09:41AM 41.5475 -88.4794 270° West 490 564 43,000  Level Chicago Center
09:42AM 41.5475 -88.6581 270° West 487 560 43,000  Level Chicago Center
09:43AM 41.5478 -88.8394 270° West 489 563 43,000  Level Chicago Center
09:44AM 41.5497 -89.0564 271° West 493 567 43,000  Level Chicago Center
09:45AM 41.5492 -89.2403 270° West 497 572 43,000  Level Chicago Center
09:46AM 41.5483 -89.4233 270° West 499 574 43,000  Level Chicago Center
09:47AM 41.5478 -89.6197 270° West 498 573 43,000  Level Chicago Center
09:48AM 41.5472 -89.8047 270° West 501 577 43,000  Level Chicago Center
09:49AM 41.5456 -89.9892 269° West 500 575 43,000  Level Chicago Center
09:50AM 41.5439 -90.1728 269° West 498 573 43,000  Level Chicago Center
09:51AM 41.5400 -90.3617 268° West 510 587 43,000  Level Chicago Center
09:52AM 41.5381 -90.5792 269° West 496 571 43,000  Level Chicago Center
09:53AM 41.5353 -90.7394 269° West 486 559 43,000  Level Chicago Center
09:54AM 41.5319 -90.9575 269° West 491 565 43,000  Level Chicago Center
09:55AM 41.5286 -91.1372 269° West 488 562 43,000  Level Chicago Center
09:56AM 41.5250 -91.3172 269° West 488 562 43,000  Level Chicago Center
09:57AM 41.5214 -91.4975 269° West 488 562 43,000  Level Chicago Center
09:58AM 41.5164 -91.6769 268° West 488 562 43,000  Level Chicago Center
09:59AM 41.5111 -91.8572 268° West 490 564 43,000  Level Chicago Center
10:00AM 41.5039 -92.0717 267° West 487 560 43,000  Level Chicago Center
10:02AM 41.4967 -92.2525 267° West 491 565 43,000  Level Chicago Center
10:03AM 41.4917 -92.4242 268° West 494 568 43,000  Level Chicago Center
10:04AM 41.4822 -92.6372 267° West 488 562 43,000  Level Chicago Center
10:04AM 41.4797 -92.7114 267° West 491 565 43,000  Level Minneapolis Center
10:05AM 41.4708 -92.9272 267° West 490 564 43,000  Level Minneapolis Center
10:06AM 41.4628 -93.1069 267° West 491 565 43,000  Level Minneapolis Center
10:07AM 41.4544 -93.2858 267° West 490 564 43,000  Level Minneapolis Center
10:08AM 41.4461 -93.4661 267° West 491 565 43,000  Level Minneapolis Center
10:09AM 41.4375 -93.6450 266° West 490 564 43,000  Level Minneapolis Center
10:10AM 41.4386 -93.8217 271° West 489 563 43,000  Level Minneapolis Center
10:11AM 41.4425 -94.0361 271° West 489 563 43,000  Level Minneapolis Center
10:12AM 41.4428 -94.2222 270° West 489 563 43,000  Level Minneapolis Center
10:13AM 41.4414 -94.4042 269° West 490 564 43,000  Level Minneapolis Center
10:14AM 41.4403 -94.5856 270° West 489 563 43,000  Level Minneapolis Center
10:15AM 41.4406 -94.7667 270° West 488 562 43,000  Level Minneapolis Center
10:16AM 41.4394 -94.9475 270° West 488 562 43,000  Level Minneapolis Center
10:18AM 41.4403 -95.1275 270° West 488 562 43,000  Level Minneapolis Center
10:19AM 41.4375 -95.3456 269° West 490 564 43,000  Level Minneapolis Center
10:20AM 41.4353 -95.5278 269° West 493 567 43,000  Level Minneapolis Center
10:21AM 41.4342 -95.7217 270° West 492 566 43,000  Level Minneapolis Center
10:22AM 41.4319 -95.9025 269° West 488 562 43,000  Level Minneapolis Center
10:23AM 41.4300 -96.0839 269° West 489 563 43,000  Level Minneapolis Center
10:24AM 41.4261 -96.2639 268° West 487 560 43,000  Level Minneapolis Center
10:25AM 41.4239 -96.4539 269° West 490 564 43,000  Level Minneapolis Center
10:26AM 41.4211 -96.6353 269° West 491 565 43,000  Level Minneapolis Center
10:27AM 41.4175 -96.8164 269° West 491 565 43,000  Level Minneapolis Center
10:28AM 41.4131 -96.9950 268° West 486 559 43,000  Level Minneapolis Center
10:29AM 41.4086 -97.1731 268° West 483 556 43,000  Level Minneapolis Center
10:30AM 41.4028 -97.3889 268° West 485 558 43,000  Level Minneapolis Center
10:31AM 41.3978 -97.5694 268° West 488 562 43,000  Level Minneapolis Center
10:32AM 41.3922 -97.7492 268° West 488 562 43,000  Level Minneapolis Center
10:33AM 41.3861 -97.9267 267° West 482 555 43,000  Level Minneapolis Center
10:34AM 41.3806 -98.1047 268° West 481 554 43,000  Level Minneapolis Center
10:35AM 41.3719 -98.3114 267° West 483 556 43,000  Level Minneapolis Center
10:36AM 41.3675 -98.4622 268° West 484 557 43,000  Level Minneapolis Center
10:37AM 41.3583 -98.6764 267° West 484 557 43,000  Level Minneapolis Center
10:38AM 41.3492 -98.8539 266° West 483 556 43,000  Level Minneapolis Center
10:39AM 41.3356 -99.0261 264° West 477 549 43,000  Level Minneapolis Center
10:40AM 41.3008 -99.2147 256° West 474 545 43,000  Level Minneapolis Center
10:41AM 41.2733 -99.3844 258° West 473 544 43,000  Level Denver Center
10:42AM 41.2450 -99.5608 258° West 474 545 43,000  Level Denver Center
10:43AM 41.2194 -99.7239 258° West 473 544 43,000  Level Denver Center
10:44AM 41.1889 -99.9125 258° West 470 541 43,000  Level Denver Center
10:45AM 41.1622 -100.0733 258° West 468 539 43,000  Level Denver Center
10:46AM 41.1311 -100.2625 258° West 470 541 43,000  Level Denver Center
10:47AM 41.1047 -100.4233 258° West 469 540 43,000  Level Denver Center
10:48AM 41.0728 -100.6111 257° West 471 542 43,000  Level Denver Center
10:50AM 41.0425 -100.7989 258° West 473 544 43,000  Level Denver Center
10:51AM 41.0122 -100.9575 256° West 472 543 43,000  Level Denver Center
10:52AM 40.9797 -101.1433 257° West 469 540 43,000  Level Denver Center
10:53AM 40.9519 -101.3031 257° West 469 540 43,000  Level Denver Center
10:54AM 40.9192 -101.4875 257° West 463 533 43,000  Level Denver Center
10:55AM 40.8914 -101.6469 257° West 465 535 43,000  Level Denver Center
10:56AM 40.8589 -101.8297 257° West 462 532 43,000  Level Denver Center
10:57AM 40.8303 -101.9867 257° West 461 531 43,000  Level Denver Center
10:58AM 40.7958 -102.1706 256° West 462 532 43,000  Level Denver Center
10:59AM 40.7664 -102.3272 256° West 461 531 43,000  Level Denver Center
11:00AM 40.7361 -102.4844 256° West 463 533 43,000  Level Denver Center
11:01AM 40.7022 -102.6669 256° West 461 531 43,000 -1,260 Level Denver Center
11:02AM 40.6703 -102.8347 256° West 457 526 40,400 -2,940 Descending Denver Center
11:03AM 40.6397 -102.9961 256° West 457 526 37,000 -3,360 Descending Denver Center
11:04AM 40.6078 -103.1561 255° West 455 524 33,500 -3,360 Descending Denver Center
11:05AM 40.5786 -103.3117 256° West 442 509 30,000 -2,880 Descending Denver Center
11:06AM 40.5461 -103.4778 256° West 393 452 27,600 -2,160 Descending Denver Center
11:07AM 40.5194 -103.6064 255° West 369 425 25,600 -1,920 Descending Denver Center
11:08AM 40.4944 -103.7347 256° West 365 420 23,700 -1,860 Descending Denver Center
11:09AM 40.4644 -103.8583 252° West 359 413 21,800 -1,920 Descending Denver Center
11:10AM 40.3917 -103.9575 226° Southwest 332 382 19,800 -1,800 Descending Denver Center
11:11AM 40.3486 -104.0569 240° Southwest 320 368 18,200 -1,680 Descending Denver Center
11:12AM 40.3092 -104.1711 246° West 320 368 16,400 -1,740 Descending Denver Center
11:13AM 40.2744 -104.2753 246° West 314 361 14,700 -1,620 Descending Denver Center
11:14AM 40.2375 -104.3881 247° West 314 361 13,100 -1,020 Descending Denver Center
11:15AM 40.2119 -104.4956 253° West 313 360 12,700 -780 Descending Denver Center
11:16AM 40.1942 -104.6158 259° West 314 361 11,600 -780 Descending Denver Center
11:18AM 40.1756 -104.7531 260° West 313 360 11,000 -360 Descending Denver Center
11:19AM 40.1614 -104.8622 260° West 308 354 10,900 -840 Descending Denver Center
11:20AM 40.1403 -104.9650 255° West 285 328 9,300 -960 Descending Denver Center
11:21AM 40.0703 -104.9644 180° South 261 300 9,000 -420 Descending Denver Center
11:22AM 39.9978 -104.9464 169° South 251 289 8,500 -1,020 Descending Denver Center
11:23AM 39.9317 -104.9472 181° South 241 277 7,000 -780 Descending Denver Center
11:24AM 39.8808 -104.9872 211° Southwest 197 227 7,000 -240 Level Denver Center
11:25AM 39.8739 -105.0483 262° West 177 204 6,600 -660 Descending Denver Center
11:26AM 39.8992 -105.0986 303° West 152 175 5,700 -900 Descending Denver Center
11:28AM 39.9000 -105.1167 225° Southwest  Level FlightAware Approximate
11:35AM 39.9088 -105.1172 225° Southwest  Level Estimated